Time;durP1;ratioP1;P1;durP2;ratioP2;P2;SDS_P1;SDS_P2;PMS_P1;PMS_P2;Temp;Humidity;BMP_temperature;BMP_pressure;BME280_temperature;BME280_humidity;BME280_pressure;Samples;Min_cycle;Max_cycle;Signal;HPM_P1;HPM_P2
2022/11/09 00:00:37;;;;;;;;;3.00;3.00;;;;;16.49;66.24;100191.88;2081814;28;45867;-63
2022/11/09 00:01:38;;;;;;;;;3.33;3.33;;;;;16.51;66.17;100198.00;2083063;28;46255;-63
2022/11/09 00:02:38;;;;;;;;;4.67;4.00;;;;;16.51;65.99;100199.84;2080084;28;46194;-64
2022/11/09 00:03:38;;;;;;;;;3.00;3.00;;;;;16.51;65.86;100206.06;2081732;28;46694;-64
2022/11/09 00:04:39;;;;;;;;;2.00;2.00;;;;;16.51;66.43;100207.88;2082645;28;45974;-63
2022/11/09 00:05:39;;;;;;;;;4.33;3.00;;;;;16.51;66.09;100205.19;2084868;28;46643;-64
2022/11/09 00:06:39;;;;;;;;;3.00;3.00;;;;;16.49;65.94;100203.47;2084761;28;46535;-63
2022/11/09 00:07:40;;;;;;;;;3.33;2.67;;;;;16.49;66.46;100206.13;2084495;28;47360;-64
2022/11/09 00:08:40;;;;;;;;;4.00;4.00;;;;;16.48;66.17;100203.53;2083378;28;46592;-64
2022/11/09 00:09:41;;;;;;;;;5.00;3.33;;;;;16.47;66.49;100208.03;2079348;28;46129;-64
2022/11/09 00:10:41;;;;;;;;;4.00;3.33;;;;;16.48;65.98;100216.94;2081626;28;46409;-64
2022/11/09 00:11:41;;;;;;;;;5.67;3.67;;;;;16.47;66.37;100204.50;2081484;28;46981;-63
2022/11/09 00:12:42;;;;;;;;;3.67;3.67;;;;;16.46;66.47;100209.00;2075149;28;46579;-63
2022/11/09 00:13:44;;;;;;;;;4.33;3.00;;;;;16.46;66.17;100217.03;2073643;28;47076;-62
2022/11/09 00:14:44;;;;;;;;;3.00;3.00;;;;;16.46;66.21;100216.16;2079743;28;46220;-64
2022/11/09 00:15:44;;;;;;;;;3.33;3.33;;;;;16.47;66.35;100225.91;2073915;28;46887;-64
2022/11/09 00:16:45;;;;;;;;;1.67;1.67;;;;;16.48;66.21;100220.47;2076479;28;46480;-64
2022/11/09 00:17:45;;;;;;;;;3.00;3.00;;;;;16.47;66.22;100221.44;2092774;28;46710;-64
2022/11/09 00:18:46;;;;;;;;;3.00;3.00;;;;;16.47;66.32;100225.91;2092154;28;46621;-63
2022/11/09 00:19:46;;;;;;;;;2.67;2.00;;;;;16.45;66.48;100219.78;2090978;28;46380;-62
2022/11/09 00:20:47;;;;;;;;;6.33;6.33;;;;;16.44;66.45;100228.78;2094439;28;46436;-63
2022/11/09 00:21:47;;;;;;;;;4.00;4.00;;;;;16.44;66.68;100239.50;2091431;28;46938;-64
2022/11/09 00:22:48;;;;;;;;;3.00;2.00;;;;;16.42;66.79;100242.25;2088629;28;46073;-63
2022/11/09 00:23:49;;;;;;;;;4.75;3.75;;;;;16.42;66.64;100239.56;2090168;28;46908;-62
2022/11/09 00:24:50;;;;;;;;;3.50;3.50;;;;;16.42;67.14;100234.22;2092983;28;45599;-62
2022/11/09 00:25:50;;;;;;;;;4.67;3.67;;;;;16.43;67.45;100237.75;2091296;28;46456;-62
2022/11/09 00:26:50;;;;;;;;;5.00;3.67;;;;;16.41;67.71;100234.31;2091176;28;46734;-63
2022/11/09 00:27:52;;;;;;;;;5.33;4.33;;;;;16.39;68.06;100229.03;2089687;28;46529;-64
2022/11/09 00:28:52;;;;;;;;;5.00;3.00;;;;;16.37;67.77;100230.91;2090244;28;46462;-63
2022/11/09 00:29:53;;;;;;;;;1.00;1.00;;;;;16.37;68.01;100232.72;2090041;28;46754;-64
2022/11/09 00:31:05;;;;;;;;;2.00;2.00;;;;;16.35;68.44;100235.47;2093051;28;46517;-63
2022/11/09 00:32:05;;;;;;;;;5.00;5.00;;;;;16.33;68.60;100239.19;2091283;28;46865;-64
2022/11/09 00:33:06;;;;;;;;;3.00;3.00;;;;;16.33;68.32;100228.47;2091682;28;46743;-62
2022/11/09 00:34:06;;;;;;;;;5.00;3.75;;;;;16.31;68.77;100231.25;2090515;28;45408;-65
2022/11/09 00:35:07;;;;;;;;;3.00;2.33;;;;;16.31;68.55;100227.69;2093981;28;46213;-62
2022/11/09 00:36:11;;;;;;;;;8.67;6.33;;;;;16.30;68.84;100209.91;2094936;28;47025;-63
2022/11/09 00:37:11;;;;;;;;;4.50;4.50;;;;;16.29;68.79;100195.66;2087096;28;46555;-63
2022/11/09 00:38:12;;;;;;;;;4.67;3.67;;;;;16.29;68.67;100186.75;2095107;28;46462;-63
2022/11/09 00:39:12;;;;;;;;;5.00;4.00;;;;;16.27;68.87;100170.78;2091805;28;46651;-62
2022/11/09 00:40:15;;;;;;;;;4.00;4.00;;;;;16.27;69.26;100172.59;2093437;28;45770;-64
2022/11/09 00:41:16;;;;;;;;;4.00;3.25;;;;;16.27;68.96;100169.91;2092996;28;46339;-64
2022/11/09 00:42:17;;;;;;;;;2.33;2.00;;;;;16.26;69.06;100168.16;2092198;28;45348;-63
2022/11/09 00:43:17;;;;;;;;;5.00;4.00;;;;;16.24;69.16;100168.25;2091321;28;46791;-62
2022/11/09 00:44:17;;;;;;;;;2.00;2.00;;;;;16.24;69.24;100175.41;2092257;28;46707;-63
2022/11/09 00:45:19;;;;;;;;;4.00;2.67;;;;;16.24;69.07;100172.72;2095248;28;46396;-63
2022/11/09 00:46:19;;;;;;;;;2.75;2.75;;;;;16.22;69.65;100179.97;2095109;28;46718;-63
2022/11/09 00:47:20;;;;;;;;;2.00;1.33;;;;;16.21;69.18;100184.47;2093038;28;46715;-63
2022/11/09 00:48:20;;;;;;;;;2.00;1.00;;;;;16.21;69.20;100180.94;2092849;28;46827;-63
2022/11/09 00:49:20;;;;;;;;;2.33;2.33;;;;;16.18;68.94;100187.31;2094995;28;46444;-63
2022/11/09 00:50:21;;;;;;;;;5.33;5.00;;;;;16.16;69.25;100183.88;2093724;28;46181;-66
2022/11/09 00:51:21;;;;;;;;;8.33;7.67;;;;;16.16;69.47;100189.22;2092577;28;46208;-64
2022/11/09 00:52:22;;;;;;;;;8.33;8.33;;;;;16.16;69.08;100190.09;2092457;28;46872;-63
2022/11/09 00:53:23;;;;;;;;;4.00;4.00;;;;;16.17;69.25;100194.50;2094773;28;45783;-63
2022/11/09 00:54:23;;;;;;;;;8.25;5.50;;;;;16.17;69.32;100197.16;2091792;28;46536;-63
2022/11/09 00:55:23;;;;;;;;;5.67;5.67;;;;;16.19;69.40;100194.41;2093639;28;46741;-64
2022/11/09 00:56:24;;;;;;;;;7.67;4.33;;;;;16.18;69.29;100193.53;2091567;28;46220;-62
2022/11/09 00:57:24;;;;;;;;;2.67;2.67;;;;;16.20;69.04;100198.81;2092456;28;46405;-63
2022/11/09 00:58:26;;;;;;;;;4.33;4.00;;;;;16.19;69.14;100197.94;2093138;28;46094;-63
2022/11/09 00:59:26;;;;;;;;;4.25;3.00;;;;;16.19;69.20;100192.59;2093440;28;45733;-62
2022/11/09 01:00:27;;;;;;;;;7.00;3.67;;;;;16.18;69.19;100198.91;2094762;28;46913;-63
2022/11/09 01:01:27;;;;;;;;;3.00;3.00;;;;;16.19;69.34;100186.38;2090472;28;46631;-62
2022/11/09 01:02:27;;;;;;;;;3.00;3.00;;;;;16.17;69.28;100198.97;2093063;28;46594;-63
2022/11/09 01:03:28;;;;;;;;;2.00;2.00;;;;;16.17;69.57;100197.16;2092931;28;46760;-64
2022/11/09 01:04:28;;;;;;;;;4.00;3.33;;;;;16.16;68.98;100203.47;2096891;28;46594;-63
2022/11/09 01:05:28;;;;;;;;;3.00;3.00;;;;;16.14;69.42;100200.00;2094142;28;46476;-63
2022/11/09 01:06:29;;;;;;;;;3.67;3.67;;;;;16.14;69.39;100202.69;2091753;28;47097;-64
2022/11/09 01:07:29;;;;;;;;;2.00;2.00;;;;;16.15;69.17;100206.22;2089626;28;46673;-63
2022/11/09 01:08:31;;;;;;;;;3.67;3.67;;;;;16.15;69.09;100209.78;2094220;28;46685;-63
2022/11/09 01:09:32;;;;;;;;;5.50;4.75;;;;;16.15;68.85;100203.56;2092622;28;46535;-63
2022/11/09 01:10:33;;;;;;;;;7.00;6.00;;;;;16.15;68.73;100211.59;2095674;28;46149;-64
2022/11/09 01:11:33;;;;;;;;;7.00;5.00;;;;;16.15;69.07;100212.44;2091635;28;45754;-62
2022/11/09 01:12:33;;;;;;;;;3.67;3.00;;;;;16.15;68.73;100219.63;2091407;28;46236;-63
2022/11/09 01:13:35;;;;;;;;;2.67;2.67;;;;;16.14;69.18;100210.72;2093459;28;46776;-63
2022/11/09 01:14:36;;;;;;;;;2.75;2.75;;;;;16.14;69.20;100212.53;2093473;28;46468;-62
2022/11/09 01:15:41;;;;;;;;;1.00;1.00;;;;;16.12;69.18;100215.25;2094995;28;46789;-64
2022/11/09 01:16:41;;;;;;;;;2.00;1.25;;;;;16.12;69.04;100217.94;2100004;27;45595;-62
2022/11/09 01:17:42;;;;;;;;;3.00;2.00;;;;;16.11;69.12;100218.03;2101804;27;46572;-64
2022/11/09 01:18:42;;;;;;;;;1.67;1.67;;;;;16.11;69.29;100218.88;2097042;28;45096;-62
2022/11/09 01:19:42;;;;;;;;;3.67;1.67;;;;;16.10;69.06;100219.84;2092649;28;47408;-62
2022/11/09 01:20:45;;;;;;;;;2.67;2.00;;;;;16.09;68.89;100218.09;2093801;28;44965;-64
2022/11/09 01:21:45;;;;;;;;;2.75;2.00;;;;;16.10;69.23;100210.94;2091931;28;46577;-63
2022/11/09 01:22:46;;;;;;;;;3.00;2.33;;;;;16.08;69.18;100224.41;2095414;28;46792;-63
2022/11/09 01:23:46;;;;;;;;;2.00;2.00;;;;;16.07;69.08;100222.69;2092156;28;45520;-63
2022/11/09 01:24:47;;;;;;;;;1.67;1.67;;;;;16.06;69.49;100218.28;2091095;28;45765;-63
2022/11/09 01:25:47;;;;;;;;;5.00;3.33;;;;;16.05;69.34;100223.72;2093047;28;47092;-63
2022/11/09 01:26:47;;;;;;;;;2.33;2.33;;;;;16.04;69.12;100228.22;2092517;28;46457;-63
2022/11/09 01:27:48;;;;;;;;;2.33;2.33;;;;;16.04;68.99;100227.34;2091936;28;46374;-63
2022/11/09 01:28:48;;;;;;;;;1.33;1.33;;;;;16.05;69.29;100221.03;2093241;28;46419;-62
2022/11/09 01:29:48;;;;;;;;;2.00;2.00;;;;;16.04;69.23;100225.53;2082015;28;46159;-62
2022/11/09 01:30:49;;;;;;;;;2.33;2.00;;;;;16.03;68.92;100226.47;2084185;28;45496;-64
2022/11/09 01:31:49;;;;;;;;;3.00;2.00;;;;;16.03;68.89;100222.94;2091748;28;46603;-62
2022/11/09 01:32:50;;;;;;;;;2.67;1.00;;;;;16.02;69.15;100234.59;2092137;28;44994;-63
2022/11/09 01:33:50;;;;;;;;;2.00;2.00;;;;;16.01;69.42;100230.19;2091416;28;46728;-62
2022/11/09 01:34:50;;;;;;;;;1.00;1.00;;;;;15.99;68.78;100224.88;2091187;28;46322;-63
2022/11/09 01:35:50;;;;;;;;;3.33;2.67;;;;;15.99;68.92;100229.38;2092279;28;46556;-62
2022/11/09 01:36:51;;;;;;;;;0.33;0.33;;;;;15.96;68.91;100241.09;2092374;28;46281;-62
2022/11/09 01:37:51;;;;;;;;;2.67;2.67;;;;;15.96;68.94;100237.56;2090649;28;46173;-63
2022/11/09 01:38:52;;;;;;;;;2.00;2.00;;;;;15.95;69.03;100231.34;2092589;28;46788;-64
2022/11/09 01:39:52;;;;;;;;;3.33;1.33;;;;;15.95;69.16;100241.19;2091072;28;45811;-64
2022/11/09 01:40:52;;;;;;;;;2.00;1.00;;;;;15.94;69.30;100245.69;2093030;28;45836;-63
2022/11/09 01:41:53;;;;;;;;;3.33;1.00;;;;;15.93;69.15;100230.56;2090344;28;46237;-64
2022/11/09 01:42:53;;;;;;;;;1.33;1.33;;;;;15.92;68.85;100239.53;2092750;28;46136;-62
2022/11/09 01:44:13;;;;;;;;;1.00;1.00;;;;;15.89;69.56;100237.91;2098703;28;46721;-63
2022/11/09 01:45:16;;;;;;;;;4.00;2.50;;;;;15.87;68.88;100246.91;2096489;28;45153;-64
2022/11/09 01:46:28;;;;;;;;;3.75;1.50;;;;;15.86;69.11;100242.50;2092006;28;47101;-63
2022/11/09 01:47:29;;;;;;;;;2.75;2.75;;;;;15.84;69.16;100242.59;2094160;28;46651;-63
2022/11/09 01:48:52;;;;;;;;;4.00;2.25;;;;;15.84;69.41;100247.09;2092591;28;46338;-62
2022/11/09 01:49:59;;;;;;;;;3.00;3.00;;;;;15.83;69.39;100243.53;2091738;28;46582;-63
2022/11/09 01:51:07;;;;;;;;;2.00;2.00;;;;;15.81;69.42;100242.75;2086619;28;46666;-64
2022/11/09 01:52:19;;;;;;;;;3.00;1.25;;;;;15.82;69.22;100243.63;2082561;28;46461;-63
2022/11/09 01:53:25;;;;;;;;;4.25;3.50;;;;;15.80;69.14;100241.03;2094672;28;45712;-62
2022/11/09 01:54:29;;;;;;;;;2.00;2.00;;;;;15.78;68.85;100242.94;2094990;28;46278;-63
2022/11/09 01:55:29;;;;;;;;;1.25;1.25;;;;;15.77;69.20;100243.88;2096994;28;46214;-63
2022/11/09 01:56:31;;;;;;;;;2.67;2.00;;;;;15.77;69.33;100243.00;2095089;28;46293;-62
2022/11/09 01:57:37;;;;;;;;;1.75;1.75;;;;;15.75;68.89;100240.41;2094837;28;46688;-64
2022/11/09 01:58:44;;;;;;;;;4.00;3.00;;;;;15.74;69.35;100245.81;2094669;28;46752;-64
2022/11/09 01:59:50;;;;;;;;;1.00;1.00;;;;;15.73;69.29;100244.94;2095059;28;45551;-64
2022/11/09 02:00:51;;;;;;;;;3.25;1.50;;;;;15.73;68.72;100247.63;2095039;28;47314;-63
2022/11/09 02:01:52;;;;;;;;;1.75;1.00;;;;;15.72;69.29;100250.38;2094398;28;46288;-64
2022/11/09 02:03:00;;;;;;;;;2.00;2.00;;;;;15.71;69.06;100260.22;2095464;28;46871;-62
2022/11/09 02:04:12;;;;;;;;;2.50;2.50;;;;;15.70;68.96;100262.97;2093875;28;46857;-63
2022/11/09 02:05:17;;;;;;;;;2.00;2.00;;;;;15.69;69.23;100267.44;2093540;28;46688;-62
2022/11/09 02:06:20;;;;;;;;;1.25;1.25;;;;;15.69;69.47;100274.63;2094034;28;45226;-63
2022/11/09 02:07:22;;;;;;;;;1.75;1.75;;;;;15.68;69.03;100271.06;2093230;28;46590;-63
2022/11/09 02:08:25;;;;;;;;;2.00;2.00;;;;;15.69;69.26;100271.94;2092050;28;46826;-63
2022/11/09 02:09:33;;;;;;;;;1.50;1.50;;;;;15.68;69.55;100275.56;2095291;28;46365;-61
2022/11/09 02:10:36;;;;;;;;;2.00;2.00;;;;;15.68;69.21;100268.41;2092514;28;46951;-63
2022/11/09 02:11:36;;;;;;;;;3.00;1.25;;;;;15.68;68.93;100272.88;2094133;28;46438;-65
2022/11/09 02:12:37;;;;;;;;;2.00;2.00;;;;;15.67;68.99;100269.34;2094531;28;46251;-63
2022/11/09 02:13:41;;;;;;;;;3.00;1.00;;;;;15.65;69.05;100265.88;2085984;28;45926;-65
2022/11/09 02:14:44;;;;;;;;;2.50;1.75;;;;;15.63;69.49;100258.88;2087274;28;46294;-63
2022/11/09 02:15:44;;;;;;;;;2.25;2.25;;;;;15.63;69.19;100266.91;2084349;28;46378;-64
2022/11/09 02:16:46;;;;;;;;;2.00;2.00;;;;;15.64;69.15;100263.28;2086826;28;46442;-64
2022/11/09 02:17:51;;;;;;;;;3.00;3.00;;;;;15.64;69.10;100268.63;2094117;28;46905;-63
2022/11/09 02:18:57;;;;;;;;;3.25;0.75;;;;;15.63;69.11;100264.22;2094525;28;46498;-63
2022/11/09 02:19:57;;;;;;;;;3.75;2.00;;;;;15.61;69.53;100269.63;2094381;28;45548;-63
2022/11/09 02:20:58;;;;;;;;;1.00;1.00;;;;;15.60;69.18;100271.44;2094985;28;46669;-63
2022/11/09 02:21:58;;;;;;;;;4.00;2.00;;;;;15.59;69.17;100272.38;2092320;28;46721;-61
2022/11/09 02:22:58;;;;;;;;;3.00;3.00;;;;;15.59;69.43;100268.81;2094832;28;46381;-66
2022/11/09 02:23:59;;;;;;;;;3.00;1.67;;;;;15.58;69.46;100267.94;2093745;28;46339;-64
2022/11/09 02:25:00;;;;;;;;;2.67;2.67;;;;;15.57;69.39;100266.22;2094764;28;46294;-62
2022/11/09 02:26:05;;;;;;;;;2.00;2.00;;;;;15.57;69.48;100254.66;2094469;28;46604;-62
2022/11/09 02:27:06;;;;;;;;;4.00;3.00;;;;;15.56;69.05;100266.31;2094717;28;46536;-63
2022/11/09 02:28:07;;;;;;;;;1.00;1.00;;;;;15.55;68.83;100260.09;2094287;28;46462;-63
2022/11/09 02:29:10;;;;;;;;;2.67;2.33;;;;;15.54;69.13;100255.69;2090958;28;46437;-62
2022/11/09 02:30:13;;;;;;;;;1.50;1.50;;;;;15.53;69.29;100253.94;2092613;28;46653;-62
2022/11/09 02:31:16;;;;;;;;;1.25;1.25;;;;;15.52;68.87;100252.22;2096645;28;46688;-62
2022/11/09 02:32:23;;;;;;;;;1.00;1.00;;;;;15.51;68.93;100257.66;2093235;28;46598;-63
2022/11/09 02:33:23;;;;;;;;;1.75;1.25;;;;;15.50;69.24;100247.88;2091068;28;47155;-64
2022/11/09 02:34:24;;;;;;;;;0.67;0.67;;;;;15.49;68.53;100262.19;2094037;28;45928;-63
2022/11/09 02:35:24;;;;;;;;;1.33;1.33;;;;;15.48;69.16;100255.09;2093058;28;46479;-62
2022/11/09 02:36:24;;;;;;;;;0.33;0.33;;;;;15.47;69.12;100264.06;2092065;28;46290;-64
2022/11/09 02:37:29;;;;;;;;;2.33;2.33;;;;;15.47;68.94;100253.38;2091920;28;46699;-62
2022/11/09 02:38:30;;;;;;;;;3.75;1.75;;;;;15.46;69.06;100259.66;2091873;28;46367;-62
2022/11/09 02:39:30;;;;;;;;;2.00;1.67;;;;;15.44;68.92;100246.38;2092004;28;46867;-63
2022/11/09 02:40:36;;;;;;;;;1.33;0.67;;;;;15.45;68.89;100250.78;2093065;28;46374;-63
2022/11/09 02:41:43;;;;;;;;;1.50;1.50;;;;;15.45;69.08;100249.91;2093982;28;46780;-62
2022/11/09 02:42:43;;;;;;;;;2.00;2.00;;;;;15.44;68.84;100250.84;2090757;28;46596;-62
2022/11/09 02:43:44;;;;;;;;;1.33;1.33;;;;;15.42;68.88;100245.59;2090177;28;46450;-63
2022/11/09 02:44:50;;;;;;;;;1.67;1.67;;;;;15.41;68.87;100251.88;2093386;28;45330;-63
2022/11/09 02:45:50;;;;;;;;;2.75;1.00;;;;;15.39;68.67;100253.75;2091431;28;46280;-63
2022/11/09 02:46:51;;;;;;;;;1.67;1.67;;;;;15.39;68.42;100253.75;2092040;28;45452;-62
2022/11/09 02:47:51;;;;;;;;;2.67;1.67;;;;;15.38;68.83;100254.72;2089293;28;46052;-64
2022/11/09 02:48:51;;;;;;;;;1.33;0.33;;;;;15.37;68.88;100241.38;2090480;28;46808;-64
2022/11/09 02:49:52;;;;;;;;;2.67;2.00;;;;;15.36;68.43;100253.03;2091987;28;46476;-64
2022/11/09 02:50:52;;;;;;;;;1.00;0.67;;;;;15.35;68.70;100249.50;2092598;28;46542;-64
2022/11/09 02:51:52;;;;;;;;;1.00;0.00;;;;;15.34;69.01;100255.78;2083788;28;46821;-63
2022/11/09 02:52:53;;;;;;;;;0.33;0.33;;;;;15.32;68.88;100250.50;2084628;28;46232;-63
2022/11/09 02:53:53;;;;;;;;;1.67;1.67;;;;;15.34;68.98;100258.44;2093169;28;46781;-63
2022/11/09 02:54:53;;;;;;;;;1.00;1.00;;;;;15.32;68.60;100266.56;2094731;28;46289;-62
2022/11/09 02:55:54;;;;;;;;;1.33;1.33;;;;;15.32;68.25;100265.69;2093964;28;46571;-64
2022/11/09 02:56:54;;;;;;;;;2.00;2.00;;;;;15.31;68.37;100264.81;2093103;28;46353;-63
2022/11/09 02:57:54;;;;;;;;;0.00;0.00;;;;;15.30;68.58;100257.75;2089148;28;46271;-63
2022/11/09 02:58:54;;;;;;;;;0.00;0.00;;;;;15.30;68.58;100264.91;2091196;28;46774;-64
2022/11/09 02:59:55;;;;;;;;;2.00;1.00;;;;;15.29;68.79;100264.03;2091253;28;46586;-61
2022/11/09 03:00:55;;;;;;;;;2.33;1.00;;;;;15.27;68.49;100271.25;2091066;28;46380;-62
2022/11/09 03:01:55;;;;;;;;;0.67;0.67;;;;;15.28;68.57;100273.00;2094043;28;46111;-63
2022/11/09 03:02:56;;;;;;;;;1.33;0.33;;;;;15.27;68.27;100268.59;2092311;28;46570;-63
2022/11/09 03:03:56;;;;;;;;;0.00;0.00;;;;;15.28;68.78;100274.81;2094584;28;46601;-63
2022/11/09 03:04:56;;;;;;;;;1.67;0.67;;;;;15.26;68.63;100274.88;2091385;28;46734;-62
2022/11/09 03:05:57;;;;;;;;;3.33;0.33;;;;;15.26;68.80;100276.69;2093093;28;45721;-63
2022/11/09 03:06:57;;;;;;;;;1.33;1.33;;;;;15.25;68.63;100277.63;2091731;28;45944;-63
2022/11/09 03:08:01;;;;;;;;;0.00;0.00;;;;;15.25;68.64;100280.31;2085550;28;46291;-62
2022/11/09 03:09:09;;;;;;;;;0.25;0.00;;;;;15.24;68.16;100274.06;2091221;28;46230;-62
2022/11/09 03:10:09;;;;;;;;;0.00;0.00;;;;;15.23;68.15;100275.00;2091111;28;47097;-63
2022/11/09 03:11:10;;;;;;;;;3.00;1.33;;;;;15.23;68.57;100276.81;2092635;28;45424;-63
2022/11/09 03:12:28;;;;;;;;;0.00;0.00;;;;;15.23;68.08;100276.81;2090648;28;46513;-64
2022/11/09 03:13:29;;;;;;;;;1.75;1.00;;;;;15.21;68.46;100282.22;2090632;28;46745;-62
2022/11/09 03:14:29;;;;;;;;;1.33;0.00;;;;;15.20;68.44;100272.47;2102551;28;46286;-64
2022/11/09 03:15:30;;;;;;;;;0.67;0.67;;;;;15.19;68.44;100284.13;2103099;27;45843;-64
2022/11/09 03:16:30;;;;;;;;;0.00;0.00;;;;;15.19;68.50;100283.25;2093791;28;45629;-63
2022/11/09 03:17:31;;;;;;;;;0.67;0.67;;;;;15.18;68.24;100278.84;2088761;28;46742;-63
2022/11/09 03:18:32;;;;;;;;;2.00;0.67;;;;;15.16;68.26;100286.94;2093108;28;46079;-63
2022/11/09 03:19:32;;;;;;;;;0.00;0.00;;;;;15.16;68.46;100280.72;2089833;28;46404;-62
2022/11/09 03:20:32;;;;;;;;;2.00;1.00;;;;;15.13;68.12;100279.06;2098457;28;46744;-64
2022/11/09 03:21:34;;;;;;;;;1.33;1.33;;;;;15.14;68.21;100283.47;2096819;28;46647;-63
2022/11/09 03:22:34;;;;;;;;;1.25;1.25;;;;;15.13;68.38;100280.88;2099386;28;46395;-63
2022/11/09 03:23:34;;;;;;;;;0.67;0.67;;;;;15.12;68.45;100288.03;2099433;28;46484;-63
2022/11/09 03:24:34;;;;;;;;;0.00;0.00;;;;;15.11;68.30;100282.72;2086223;28;46802;-63
2022/11/09 03:25:35;;;;;;;;;2.00;0.67;;;;;15.11;68.27;100278.25;2086400;28;46603;-63
2022/11/09 03:26:36;;;;;;;;;1.25;1.25;;;;;15.11;67.93;100280.94;2096585;28;46554;-63
2022/11/09 03:27:36;;;;;;;;;0.00;0.00;;;;;15.11;67.92;100277.38;2096261;28;45154;-63
2022/11/09 03:28:36;;;;;;;;;0.67;0.67;;;;;15.11;68.02;100277.38;2099282;28;46176;-64
2022/11/09 03:29:37;;;;;;;;;0.67;0.67;;;;;15.09;68.26;100281.94;2096365;28;45564;-64
2022/11/09 03:30:37;;;;;;;;;0.00;0.00;;;;;15.08;67.95;100282.88;2097586;28;46667;-64
2022/11/09 03:31:38;;;;;;;;;1.33;0.33;;;;;15.06;67.89;100282.97;2096817;28;46327;-62
2022/11/09 03:32:39;;;;;;;;;0.00;0.00;;;;;15.05;68.45;100294.59;2096471;28;46384;-63
2022/11/09 03:33:39;;;;;;;;;0.00;0.00;;;;;15.05;68.44;100285.72;2096936;28;46369;-64
2022/11/09 03:34:40;;;;;;;;;1.33;0.67;;;;;15.05;68.32;100289.25;2095876;28;46344;-64
2022/11/09 03:35:42;;;;;;;;;0.00;0.00;;;;;15.05;68.38;100280.38;2100099;28;46352;-63
2022/11/09 03:36:42;;;;;;;;;0.00;0.00;;;;;15.04;67.81;100284.84;2100821;28;48012;-63
2022/11/09 03:37:43;;;;;;;;;2.00;0.33;;;;;15.04;68.07;100279.50;2096226;28;46722;-63
2022/11/09 03:38:43;;;;;;;;;1.33;1.33;;;;;15.03;68.34;100288.47;2089619;28;46169;-62
2022/11/09 03:39:44;;;;;;;;;1.00;1.00;;;;;15.02;68.27;100284.94;2083710;28;46047;-64
2022/11/09 03:40:44;;;;;;;;;1.00;1.00;;;;;15.01;68.27;100291.22;2092577;28;46133;-63
2022/11/09 03:41:44;;;;;;;;;2.33;0.67;;;;;15.01;68.02;100291.22;2098157;28;46221;-64
2022/11/09 03:42:46;;;;;;;;;0.00;0.00;;;;;15.01;67.78;100291.22;2095744;28;46740;-64
2022/11/09 03:43:47;;;;;;;;;0.00;0.00;;;;;15.01;68.29;100301.03;2097332;28;46147;-62
2022/11/09 03:44:47;;;;;;;;;0.00;0.00;;;;;15.00;67.71;100305.50;2099339;28;46267;-63
2022/11/09 03:45:47;;;;;;;;;0.00;0.00;;;;;15.00;67.78;100297.50;2099044;28;46796;-63
2022/11/09 03:46:47;;;;;;;;;1.00;1.00;;;;;15.01;68.26;100295.69;2098796;28;46680;-62
2022/11/09 03:47:48;;;;;;;;;0.67;0.67;;;;;15.00;68.18;100299.31;2098574;27;46088;-63
2022/11/09 03:48:48;;;;;;;;;0.00;0.00;;;;;14.99;68.37;100294.88;2101050;27;45967;-63
2022/11/09 03:49:49;;;;;;;;;0.00;0.00;;;;;14.99;67.83;100302.88;2088841;28;46814;-63
2022/11/09 03:50:50;;;;;;;;;0.33;0.33;;;;;14.99;67.80;100306.44;2088035;28;45726;-63
2022/11/09 03:51:50;;;;;;;;;1.00;0.00;;;;;14.97;67.91;100302.97;2097169;28;46309;-64
2022/11/09 03:52:50;;;;;;;;;0.00;0.00;;;;;14.97;68.11;100304.75;2093625;28;46008;-64
2022/11/09 03:53:51;;;;;;;;;0.00;0.00;;;;;14.93;67.71;100301.38;2090313;28;45750;-62
2022/11/09 03:54:51;;;;;;;;;0.00;0.00;;;;;14.93;68.22;100300.50;2089159;28;46473;-64
2022/11/09 03:55:51;;;;;;;;;0.00;0.00;;;;;14.91;67.97;100300.59;2090676;28;47001;-63
2022/11/09 03:56:52;;;;;;;;;2.33;2.00;;;;;14.91;67.93;100297.91;2092486;28;45941;-63
2022/11/09 03:57:53;;;;;;;;;1.00;0.00;;;;;14.91;67.84;100297.91;2091566;28;46212;-62
2022/11/09 03:58:53;;;;;;;;;0.00;0.00;;;;;14.90;68.18;100304.19;2090458;28;46413;-64
2022/11/09 03:59:54;;;;;;;;;0.00;0.00;;;;;14.90;68.00;100304.19;2091045;28;46200;-62
2022/11/09 04:00:54;;;;;;;;;3.00;1.33;;;;;14.91;68.32;100300.59;2089566;28;46302;-63
2022/11/09 04:01:54;;;;;;;;;0.00;0.00;;;;;14.90;67.93;100301.53;2091366;28;46183;-63
2022/11/09 04:02:55;;;;;;;;;0.00;0.00;;;;;14.89;68.15;100298.94;2088928;28;46234;-63
2022/11/09 04:03:55;;;;;;;;;0.00;0.00;;;;;14.89;68.08;100305.13;2091234;28;46321;-63
2022/11/09 04:04:55;;;;;;;;;0.33;0.33;;;;;14.88;68.21;100303.41;2092444;28;46462;-62
2022/11/09 04:05:59;;;;;;;;;1.33;0.00;;;;;14.89;67.74;100312.28;2091113;28;46176;-63
2022/11/09 04:06:59;;;;;;;;;0.00;0.00;;;;;14.88;68.13;100311.41;2094420;28;46331;-64
2022/11/09 04:07:59;;;;;;;;;0.33;0.33;;;;;14.87;68.31;100309.69;2094919;28;47252;-64
2022/11/09 04:09:00;;;;;;;;;0.67;0.67;;;;;14.87;67.78;100306.16;2092634;28;46748;-64
2022/11/09 04:10:00;;;;;;;;;0.00;0.00;;;;;14.85;68.08;100316.00;2092962;28;46528;-63
2022/11/09 04:11:00;;;;;;;;;1.00;1.00;;;;;14.84;67.97;100315.16;2091146;28;45189;-63
2022/11/09 04:12:01;;;;;;;;;1.00;1.00;;;;;14.82;67.84;100310.81;2094562;28;46316;-63
2022/11/09 04:13:01;;;;;;;;;0.00;0.00;;;;;14.83;68.03;100315.22;2095563;28;46367;-62
2022/11/09 04:14:01;;;;;;;;;1.00;1.00;;;;;14.83;67.94;100320.56;2092577;28;46896;-62
2022/11/09 04:15:02;;;;;;;;;0.00;0.00;;;;;14.83;68.36;100323.22;2092270;28;46702;-63
2022/11/09 04:16:02;;;;;;;;;1.00;0.00;;;;;14.84;67.96;100322.28;2094747;28;46156;-62
2022/11/09 04:17:03;;;;;;;;;0.00;0.00;;;;;14.85;68.13;100324.03;2094217;28;45758;-63
2022/11/09 04:18:03;;;;;;;;;0.00;0.00;;;;;14.85;67.92;100326.69;2095857;28;46706;-63
2022/11/09 04:19:03;;;;;;;;;0.00;0.00;;;;;14.85;68.17;100324.91;2095327;28;45661;-63
2022/11/09 04:20:06;;;;;;;;;0.33;0.00;;;;;14.86;67.88;100328.44;2095182;28;46252;-63
2022/11/09 04:21:06;;;;;;;;;1.00;0.00;;;;;14.87;67.93;100330.19;2096302;28;46338;-63
2022/11/09 04:22:07;;;;;;;;;0.00;0.00;;;;;14.85;67.90;100330.22;2096044;28;46785;-62
2022/11/09 04:23:11;;;;;;;;;0.67;0.00;;;;;14.85;68.23;100329.38;2092745;28;46763;-63
2022/11/09 04:24:11;;;;;;;;;0.00;0.00;;;;;14.84;68.27;100327.63;2093413;28;46850;-63
2022/11/09 04:25:12;;;;;;;;;0.33;0.33;;;;;14.84;68.26;100330.31;2091796;28;45176;-64
2022/11/09 04:26:12;;;;;;;;;0.00;0.00;;;;;14.83;67.92;100328.56;2094684;28;46696;-64
2022/11/09 04:27:12;;;;;;;;;0.00;0.00;;;;;14.83;68.27;100333.91;2104143;28;46494;-63
2022/11/09 04:28:13;;;;;;;;;0.00;0.00;;;;;14.83;68.00;100331.25;2103622;28;47018;-63
2022/11/09 04:29:13;;;;;;;;;0.00;0.00;;;;;14.83;67.81;100337.47;2093775;28;46418;-63
2022/11/09 04:30:13;;;;;;;;;0.00;0.00;;;;;14.84;67.87;100336.53;2092084;28;46279;-63
2022/11/09 04:31:14;;;;;;;;;0.67;0.67;;;;;14.83;68.09;100334.78;2090240;28;46626;-62
2022/11/09 04:32:14;;;;;;;;;0.33;0.33;;;;;14.82;68.09;100337.53;2091969;28;46466;-63
2022/11/09 04:33:15;;;;;;;;;0.33;0.33;;;;;14.82;67.65;100345.53;2091583;28;46601;-64
2022/11/09 04:34:16;;;;;;;;;0.00;0.00;;;;;14.81;68.08;100341.13;2090451;28;45551;-62
2022/11/09 04:35:16;;;;;;;;;0.50;0.50;;;;;14.81;68.11;100346.47;2092017;28;46762;-62
2022/11/09 04:36:17;;;;;;;;;0.67;0.00;;;;;14.80;67.70;100342.09;2090377;28;46314;-62
2022/11/09 04:37:17;;;;;;;;;0.00;0.00;;;;;14.78;68.11;100339.47;2092561;28;46272;-63
2022/11/09 04:38:17;;;;;;;;;0.00;0.00;;;;;14.78;68.14;100351.97;2091683;28;47640;-63
2022/11/09 04:39:18;;;;;;;;;1.00;0.00;;;;;14.79;68.07;100345.69;2092735;28;46361;-63
2022/11/09 04:40:18;;;;;;;;;0.00;0.00;;;;;14.78;67.89;100349.31;2093351;28;46635;-62
2022/11/09 04:41:18;;;;;;;;;0.67;0.67;;;;;14.77;67.93;100356.44;2093426;28;48160;-63
2022/11/09 04:42:18;;;;;;;;;1.33;1.00;;;;;14.78;68.30;100357.31;2092009;28;46273;-63
2022/11/09 04:43:19;;;;;;;;;0.00;0.00;;;;;14.77;68.08;100366.28;2096463;28;45046;-63
2022/11/09 04:44:19;;;;;;;;;0.67;0.67;;;;;14.78;67.69;100357.31;2091917;28;46297;-63
2022/11/09 04:45:20;;;;;;;;;1.67;0.00;;;;;14.75;67.84;100363.66;2093741;28;45731;-63